Winslow, Nebraska
Current Conditions -  °F | °C
As of 11:35 AM on Tuesday 21 Oct 2014 (Local Time) from KFET Reporting Station
Clear Clear  
Wind Chill: 67°   Ceiling: Unl
Heat Index: 67°   Visibility: 10mi
Dew Point: 46°   Wind: 6mph
Humidity: 47%   Direction: 140°SE
Pressure: 30.11"   Gusts: NA
Location:  41.61°N, 96.5°W
Report Text: KFET 211635Z AUTO 14005KT 10SM CLR 19/08 A3011 RMK AO2 T01930076
Loading
Personal Weather Stations






























Interactive Weather Map
Tropical Storm Tracking
New forecast layout! Learn more

10-Day Weather Forecast

Advertisements
Track Severe Weather on mobile